Time,TemperatureF,DewpointF,PressureIn,WindDirection,WindDirectionDegrees,WindSpeedMPH,WindSpeedGustMPH,Humidity,HourlyPrecipIn,Conditions,Clouds,dailyrainin,SoftwareType,DateUTC
2013-04-30 00:04:00,64.7,57.7,29.51,SSE,149,0.0,4.0,78,0.00,,,0.00,Wunderground v.1.15,2013-04-30 05:04:00,
2013-04-30 00:09:00,64.8,58.1,29.51,SE,132,5.0,7.0,79,0.00,,,0.00,Wunderground v.1.15,2013-04-30 05:09:00,
2013-04-30 00:15:00,64.9,58.6,29.50,SE,136,0.0,6.0,80,0.00,,,0.00,Wunderground v.1.15,2013-04-30 05:15:00,
2013-04-30 00:21:00,65.0,58.7,29.51,South,169,5.0,5.0,80,0.00,,,0.00,Wunderground v.1.15,2013-04-30 05:21:00,
2013-04-30 00:26:00,65.2,58.9,29.50,ESE,117,0.0,11.0,80,0.00,,,0.00,Wunderground v.1.15,2013-04-30 05:26:00,
2013-04-30 00:32:00,65.2,58.9,29.51,SE,132,5.0,5.0,80,0.00,,,0.00,Wunderground v.1.15,2013-04-30 05:32:00,
2013-04-30 00:38:00,65.3,59.0,29.50,SE,125,6.0,8.0,80,0.00,,,0.00,Wunderground v.1.15,2013-04-30 05:38:00,
2013-04-30 00:44:00,65.3,59.0,29.50,ESE,123,0.0,7.0,80,0.00,,,0.00,Wunderground v.1.15,2013-04-30 05:44:00,
2013-04-30 00:50:00,65.3,59.0,29.49,ESE,122,0.0,7.0,80,0.00,,,0.00,Wunderground v.1.15,2013-04-30 05:50:00,
2013-04-30 00:55:00,65.1,58.8,29.49,SE,130,1.0,4.0,80,0.00,,,0.00,Wunderground v.1.15,2013-04-30 05:55:00,
2013-04-30 01:01:00,65.0,58.7,29.49,SE,136,5.0,5.0,80,0.00,,,0.00,Wunderground v.1.15,2013-04-30 06:01:00,
2013-04-30 01:07:00,64.9,58.6,29.48,ESE,106,4.0,7.0,80,0.00,,,0.00,Wunderground v.1.15,2013-04-30 06:07:00,
2013-04-30 01:12:00,64.8,58.5,29.48,SE,134,0.0,2.0,80,0.00,,,0.00,Wunderground v.1.15,2013-04-30 06:12:00,
2013-04-30 01:18:00,64.7,58.7,29.48,SE,138,0.0,5.0,81,0.00,,,0.00,Wunderground v.1.15,2013-04-30 06:18:00,
2013-04-30 01:23:00,64.7,58.7,29.48,SE,132,0.0,3.0,81,0.00,,,0.00,Wunderground v.1.15,2013-04-30 06:23:00,
2013-04-30 01:29:00,64.6,58.6,29.47,SE,128,0.0,5.0,81,0.00,,,0.00,Wunderground v.1.15,2013-04-30 06:29:00,
2013-04-30 01:34:00,64.6,58.6,29.47,East,101,1.0,5.0,81,0.00,,,0.00,Wunderground v.1.15,2013-04-30 06:34:00,
2013-04-30 01:40:00,64.5,58.5,29.46,SE,143,0.0,5.0,81,0.00,,,0.00,Wunderground v.1.15,2013-04-30 06:40:00,
2013-04-30 01:46:00,64.3,58.3,29.46,East,99,1.0,6.0,81,0.00,,,0.00,Wunderground v.1.15,2013-04-30 06:46:00,
2013-04-30 01:52:00,64.2,58.2,29.46,SSE,167,8.0,8.0,81,0.00,,,0.00,Wunderground v.1.15,2013-04-30 06:52:00,
2013-04-30 01:57:00,64.2,58.2,29.46,SE,146,5.0,8.0,81,0.00,,,0.00,Wunderground v.1.15,2013-04-30 06:57:00,
2013-04-30 02:03:00,64.2,58.2,29.45,SSE,149,6.0,6.0,81,0.00,,,0.00,Wunderground v.1.15,2013-04-30 07:03:00,
2013-04-30 02:08:00,64.1,58.1,29.45,SE,132,0.0,6.0,81,0.00,,,0.00,Wunderground v.1.15,2013-04-30 07:08:00,
2013-04-30 02:13:00,64.1,58.1,29.45,SE,146,0.0,6.0,81,0.00,,,0.00,Wunderground v.1.15,2013-04-30 07:13:00,
2013-04-30 02:18:00,64.1,58.1,29.44,East,99,5.0,9.0,81,0.00,,,0.00,Wunderground v.1.15,2013-04-30 07:18:00,
2013-04-30 02:23:00,64.0,58.1,29.44,East,101,1.0,7.0,81,0.00,,,0.00,Wunderground v.1.15,2013-04-30 07:23:00,
2013-04-30 02:28:00,63.9,58.0,29.44,SSE,161,0.0,8.0,81,0.00,,,0.00,Wunderground v.1.15,2013-04-30 07:28:00,
2013-04-30 02:33:00,63.8,57.9,29.44,ESE,117,4.0,5.0,81,0.00,,,0.00,Wunderground v.1.15,2013-04-30 07:33:00,
2013-04-30 02:38:00,63.7,57.8,29.44,SE,130,0.0,7.0,81,0.00,,,0.00,Wunderground v.1.15,2013-04-30 07:38:00,
2013-04-30 02:43:00,63.7,57.8,29.44,SSE,162,2.0,5.0,81,0.00,,,0.00,Wunderground v.1.15,2013-04-30 07:43:00,
2013-04-30 02:48:00,63.7,57.8,29.43,SE,134,4.0,11.0,81,0.00,,,0.00,Wunderground v.1.15,2013-04-30 07:48:00,
2013-04-30 02:53:00,63.7,57.8,29.43,ESE,120,2.0,6.0,81,0.00,,,0.00,Wunderground v.1.15,2013-04-30 07:53:00,
2013-04-30 02:58:00,63.6,57.7,29.43,ESE,117,0.0,7.0,81,0.00,,,0.00,Wunderground v.1.15,2013-04-30 07:58:00,
2013-04-30 03:04:00,63.7,57.8,29.43,ESE,107,2.0,11.0,81,0.00,,,0.00,Wunderground v.1.15,2013-04-30 08:04:00,
2013-04-30 03:09:00,63.6,57.7,29.42,SSE,153,4.0,11.0,81,0.00,,,0.00,Wunderground v.1.15,2013-04-30 08:09:00,
2013-04-30 03:14:00,63.6,57.7,29.42,SE,136,8.0,8.0,81,0.00,,,0.00,Wunderground v.1.15,2013-04-30 08:14:00,
2013-04-30 03:19:00,63.7,57.8,29.42,SSE,163,4.0,12.0,81,0.00,,,0.00,Wunderground v.1.15,2013-04-30 08:19:00,
2013-04-30 03:24:00,63.7,57.8,29.42,ESE,115,9.0,9.0,81,0.00,,,0.00,Wunderground v.1.15,2013-04-30 08:24:00,
2013-04-30 03:29:00,63.8,57.9,29.42,SE,128,8.0,9.0,81,0.00,,,0.00,Wunderground v.1.15,2013-04-30 08:29:00,
2013-04-30 03:34:00,63.9,58.0,29.41,East,84,4.0,8.0,81,0.00,,,0.00,Wunderground v.1.15,2013-04-30 08:34:00,
2013-04-30 03:40:00,64.1,57.8,29.41,SE,128,5.0,12.0,80,0.00,,,0.00,Wunderground v.1.15,2013-04-30 08:40:00,
2013-04-30 03:45:00,64.2,57.9,29.41,SE,125,7.0,9.0,80,0.00,,,0.00,Wunderground v.1.15,2013-04-30 08:45:00,
2013-04-30 03:50:00,64.3,58.0,29.41,SSE,161,5.0,12.0,80,0.00,,,0.00,Wunderground v.1.15,2013-04-30 08:50:00,
2013-04-30 03:55:00,64.2,57.9,29.41,SSE,163,5.0,9.0,80,0.00,,,0.00,Wunderground v.1.15,2013-04-30 08:55:00,
2013-04-30 04:00:00,64.1,57.8,29.40,SE,130,0.0,9.0,80,0.00,,,0.00,Wunderground v.1.15,2013-04-30 09:00:00,
2013-04-30 04:05:00,64.1,57.8,29.40,SE,140,5.0,7.0,80,0.00,,,0.00,Wunderground v.1.15,2013-04-30 09:05:00,
2013-04-30 04:10:00,64.2,57.9,29.40,SE,132,0.0,8.0,80,0.00,,,0.00,Wunderground v.1.15,2013-04-30 09:10:00,
2013-04-30 04:15:00,64.1,57.8,29.39,SE,126,5.0,7.0,80,0.00,,,0.00,Wunderground v.1.15,2013-04-30 09:15:00,
2013-04-30 04:20:00,64.1,57.8,29.39,SE,144,5.0,7.0,80,0.00,,,0.00,Wunderground v.1.15,2013-04-30 09:20:00,
2013-04-30 04:25:00,64.1,57.8,29.39,South,187,2.0,11.0,80,0.00,,,0.00,Wunderground v.1.15,2013-04-30 09:25:00,
2013-04-30 04:30:00,64.0,57.7,29.39,ESE,113,7.0,11.0,80,0.00,,,0.00,Wunderground v.1.15,2013-04-30 09:30:00,
2013-04-30 04:36:00,64.0,58.1,29.39,East,101,8.0,8.0,81,0.00,,,0.00,Wunderground v.1.15,2013-04-30 09:36:00,
2013-04-30 04:41:00,64.0,58.1,29.39,SE,130,5.0,9.0,81,0.00,,,0.00,Wunderground v.1.15,2013-04-30 09:41:00,
2013-04-30 04:46:00,64.0,58.1,29.39,South,185,0.0,8.0,81,0.00,,,0.00,Wunderground v.1.15,2013-04-30 09:46:00,
2013-04-30 04:51:00,64.0,58.1,29.38,ESE,117,4.0,10.0,81,0.00,,,0.00,Wunderground v.1.15,2013-04-30 09:51:00,
2013-04-30 04:56:00,63.9,58.0,29.37,South,184,11.0,14.0,81,0.00,,,0.00,Wunderground v.1.15,2013-04-30 09:56:00,
2013-04-30 05:01:00,64.2,58.2,29.37,ESE,110,8.0,8.0,81,0.00,,,0.00,Wunderground v.1.15,2013-04-30 10:01:00,
2013-04-30 05:06:00,64.3,58.3,29.37,SSE,158,5.0,11.0,81,0.00,,,0.00,Wunderground v.1.15,2013-04-30 10:06:00,
2013-04-30 05:12:00,64.1,58.1,29.37,SE,143,2.0,5.0,81,0.00,,,0.00,Wunderground v.1.15,2013-04-30 10:12:00,
2013-04-30 05:17:00,64.0,58.1,29.36,ESE,118,2.0,8.0,81,0.00,,,0.00,Wunderground v.1.15,2013-04-30 10:17:00,
2013-04-30 05:22:00,63.9,58.0,29.37,SSE,161,9.0,9.0,81,0.00,,,0.00,Wunderground v.1.15,2013-04-30 10:22:00,
2013-04-30 05:27:00,63.8,58.2,29.37,South,177,6.0,11.0,82,0.00,,,0.00,Wunderground v.1.15,2013-04-30 10:27:00,
2013-04-30 05:32:00,63.7,58.1,29.37,ESE,105,0.0,4.0,82,0.00,,,0.00,Wunderground v.1.15,2013-04-30 10:32:00,
2013-04-30 05:37:00,63.5,57.9,29.37,East,101,5.0,8.0,82,0.00,,,0.00,Wunderground v.1.15,2013-04-30 10:37:00,
2013-04-30 05:42:00,63.4,58.1,29.37,SE,138,7.0,10.0,83,0.00,,,0.00,Wunderground v.1.15,2013-04-30 10:42:00,
2013-04-30 05:47:00,63.4,58.1,29.37,SSE,159,0.0,10.0,83,0.00,,,0.00,Wunderground v.1.15,2013-04-30 10:47:00,
2013-04-30 05:52:00,63.4,58.1,29.36,East,98,2.0,7.0,83,0.00,,,0.00,Wunderground v.1.15,2013-04-30 10:52:00,
2013-04-30 05:57:00,63.4,58.5,29.36,SE,131,7.0,11.0,84,0.00,,,0.00,Wunderground v.1.15,2013-04-30 10:57:00,
2013-04-30 06:03:00,63.5,58.6,29.36,SSW,192,3.0,8.0,84,0.00,,,0.00,Wunderground v.1.15,2013-04-30 11:03:00,
2013-04-30 06:08:00,63.4,58.5,29.36,SSE,165,7.0,10.0,84,0.00,,,0.00,Wunderground v.1.15,2013-04-30 11:08:00,
2013-04-30 06:13:00,63.5,58.6,29.36,South,170,4.0,5.0,84,0.00,,,0.00,Wunderground v.1.15,2013-04-30 11:13:00,
2013-04-30 06:18:00,63.6,59.0,29.36,SSE,148,0.0,10.0,85,0.00,,,0.00,Wunderground v.1.15,2013-04-30 11:18:00,
2013-04-30 06:23:00,64.0,59.4,29.36,SE,142,0.0,12.0,85,0.00,,,0.00,Wunderground v.1.15,2013-04-30 11:23:00,
2013-04-30 06:28:00,64.3,59.7,29.36,SSE,165,5.0,12.0,85,0.00,,,0.00,Wunderground v.1.15,2013-04-30 11:28:00,
2013-04-30 06:33:00,64.7,59.8,29.36,South,186,4.0,5.0,84,0.00,,,0.00,Wunderground v.1.15,2013-04-30 11:33:00,
2013-04-30 06:38:00,64.9,59.9,29.36,South,171,5.0,9.0,84,0.00,,,0.00,Wunderground v.1.15,2013-04-30 11:38:00,
2013-04-30 06:43:00,65.2,60.2,29.36,South,178,6.0,12.0,84,0.00,,,0.00,Wunderground v.1.15,2013-04-30 11:43:00,
2013-04-30 06:48:00,65.9,60.6,29.36,SSE,157,10.0,12.0,83,0.00,,,0.00,Wunderground v.1.15,2013-04-30 11:48:00,
2013-04-30 06:54:00,66.4,60.7,29.37,South,175,7.0,7.0,82,0.00,,,0.00,Wunderground v.1.15,2013-04-30 11:54:00,
2013-04-30 06:59:00,66.8,60.8,29.37,SSW,204,7.0,14.0,81,0.00,,,0.00,Wunderground v.1.15,2013-04-30 11:59:00,
2013-04-30 07:04:00,67.2,61.2,29.37,SW,225,4.0,10.0,81,0.00,,,0.00,Wunderground v.1.15,2013-04-30 12:04:00,
2013-04-30 07:09:00,67.7,61.3,29.38,SSW,204,14.0,18.0,80,0.00,,,0.00,Wunderground v.1.15,2013-04-30 12:09:00,
2013-04-30 07:14:00,68.1,61.3,29.38,SE,135,7.0,10.0,79,0.00,,,0.00,Wunderground v.1.15,2013-04-30 12:14:00,
2013-04-30 07:19:00,68.3,61.5,29.37,SSW,211,7.0,10.0,79,0.00,,,0.00,Wunderground v.1.15,2013-04-30 12:19:00,
2013-04-30 07:24:00,68.5,61.7,29.37,SW,221,4.0,9.0,79,0.00,,,0.00,Wunderground v.1.15,2013-04-30 12:24:00,
2013-04-30 07:29:00,68.6,61.5,29.38,SW,227,8.0,12.0,78,0.00,,,0.00,Wunderground v.1.15,2013-04-30 12:29:00,
2013-04-30 07:34:00,68.7,61.6,29.38,SW,216,6.0,17.0,78,0.00,,,0.00,Wunderground v.1.15,2013-04-30 12:34:00,
2013-04-30 07:40:00,68.8,61.7,29.38,SSW,211,9.0,17.0,78,0.00,,,0.00,Wunderground v.1.15,2013-04-30 12:40:00,
2013-04-30 07:45:00,68.8,61.7,29.38,SSW,210,7.0,8.0,78,0.00,,,0.00,Wunderground v.1.15,2013-04-30 12:45:00,
2013-04-30 07:50:00,68.9,61.4,29.38,South,175,4.0,13.0,77,0.00,,,0.00,Wunderground v.1.15,2013-04-30 12:50:00,
2013-04-30 07:55:00,69.0,61.5,29.38,West,259,8.0,16.0,77,0.00,,,0.00,Wunderground v.1.15,2013-04-30 12:55:00,
2013-04-30 08:00:00,69.2,61.3,29.39,SW,229,7.0,16.0,76,0.00,,,0.00,Wunderground v.1.15,2013-04-30 13:00:00,
2013-04-30 08:06:00,69.2,61.3,29.40,WSW,238,6.0,11.0,76,0.00,,,0.00,Wunderground v.1.15,2013-04-30 13:06:00,
2013-04-30 08:11:00,69.2,60.9,29.40,WSW,238,10.0,13.0,75,0.00,,,0.00,Wunderground v.1.15,2013-04-30 13:11:00,
2013-04-30 08:16:00,69.2,60.2,29.40,SW,235,9.0,11.0,73,0.00,,,0.00,Wunderground v.1.15,2013-04-30 13:16:00,
2013-04-30 08:21:00,69.0,59.6,29.40,WSW,245,10.0,15.0,72,0.00,,,0.00,Wunderground v.1.15,2013-04-30 13:21:00,
2013-04-30 08:26:00,68.8,58.6,29.41,WSW,247,9.0,20.0,70,0.00,,,0.00,Wunderground v.1.15,2013-04-30 13:26:00,
2013-04-30 08:31:00,68.8,58.2,29.41,West,265,10.0,10.0,69,0.00,,,0.00,Wunderground v.1.15,2013-04-30 13:31:00,
2013-04-30 08:36:00,68.7,56.9,29.42,SW,234,10.0,14.0,66,0.00,,,0.00,Wunderground v.1.15,2013-04-30 13:36:00,
2013-04-30 08:41:00,68.7,55.6,29.42,WSW,254,8.0,9.0,63,0.00,,,0.00,Wunderground v.1.15,2013-04-30 13:41:00,
2013-04-30 08:46:00,68.7,55.6,29.42,West,281,11.0,18.0,63,0.00,,,0.00,Wunderground v.1.15,2013-04-30 13:46:00,
2013-04-30 08:52:00,68.7,54.7,29.43,WNW,282,9.0,10.0,61,0.00,,,0.00,Wunderground v.1.15,2013-04-30 13:52:00,
2013-04-30 08:57:00,68.5,54.1,29.42,WSW,258,6.0,19.0,60,0.00,,,0.00,Wunderground v.1.15,2013-04-30 13:57:00,
2013-04-30 09:02:00,68.5,54.1,29.43,West,262,6.0,11.0,60,0.00,,,0.00,Wunderground v.1.15,2013-04-30 14:02:00,
2013-04-30 09:07:00,68.2,53.8,29.43,West,281,11.0,19.0,60,0.00,,,0.00,Wunderground v.1.15,2013-04-30 14:07:00,
2013-04-30 09:12:00,68.0,53.6,29.43,West,267,12.0,12.0,60,0.00,,,0.00,Wunderground v.1.15,2013-04-30 14:12:00,
2013-04-30 09:18:00,67.6,53.2,29.44,WNW,294,6.0,14.0,60,0.00,,,0.00,Wunderground v.1.15,2013-04-30 14:18:00,
2013-04-30 09:22:00,67.3,52.9,29.44,West,268,6.0,11.0,60,0.00,,,0.00,Wunderground v.1.15,2013-04-30 14:22:00,
2013-04-30 09:27:00,67.1,52.3,29.45,West,271,8.0,14.0,59,0.00,,,0.00,Wunderground v.1.15,2013-04-30 14:27:00,
2013-04-30 09:32:00,66.7,52.8,29.45,WSW,253,5.0,8.0,61,0.00,,,0.00,Wunderground v.1.15,2013-04-30 14:32:00,
2013-04-30 09:37:00,66.6,52.3,29.46,WSW,253,6.0,12.0,60,0.00,,,0.00,Wunderground v.1.15,2013-04-30 14:37:00,
2013-04-30 09:43:00,66.5,52.2,29.47,WNW,286,6.0,10.0,60,0.00,,,0.00,Wunderground v.1.15,2013-04-30 14:43:00,
2013-04-30 09:48:00,66.5,52.2,29.48,NNW,335,16.0,16.0,60,0.00,,,0.00,Wunderground v.1.15,2013-04-30 14:48:00,
2013-04-30 09:53:00,66.5,52.2,29.48,NW,313,6.0,12.0,60,0.00,,,0.00,Wunderground v.1.15,2013-04-30 14:53:00,
2013-04-30 09:58:00,66.7,52.4,29.49,WNW,302,7.0,12.0,60,0.00,,,0.00,Wunderground v.1.15,2013-04-30 14:58:00,
2013-04-30 10:03:00,66.7,52.4,29.49,West,262,7.0,9.0,60,0.00,,,0.00,Wunderground v.1.15,2013-04-30 15:03:00,
2013-04-30 10:09:00,66.3,51.5,29.50,West,267,6.0,19.0,59,0.00,,,0.00,Wunderground v.1.15,2013-04-30 15:09:00,
2013-04-30 10:13:00,66.4,51.6,29.50,WNW,300,7.0,10.0,59,0.00,,,0.00,Wunderground v.1.15,2013-04-30 15:13:00,
2013-04-30 10:19:00,66.2,51.4,29.51,WNW,287,13.0,15.0,59,0.00,,,0.00,Wunderground v.1.15,2013-04-30 15:19:00,
2013-04-30 10:24:00,66.2,51.4,29.52,West,271,12.0,14.0,59,0.00,,,0.00,Wunderground v.1.15,2013-04-30 15:24:00,
2013-04-30 10:29:00,67.0,51.3,29.52,WNW,302,5.0,14.0,57,0.00,,,0.00,Wunderground v.1.15,2013-04-30 15:29:00,
2013-04-30 10:34:00,66.7,50.5,29.52,WNW,284,6.0,14.0,56,0.00,,,0.00,Wunderground v.1.15,2013-04-30 15:34:00,
2013-04-30 10:39:00,65.8,50.1,29.52,West,275,9.0,15.0,57,0.00,,,0.00,Wunderground v.1.15,2013-04-30 15:39:00,
2013-04-30 10:44:00,65.3,50.6,29.54,West,265,7.0,14.0,59,0.00,,,0.00,Wunderground v.1.15,2013-04-30 15:44:00,
2013-04-30 10:50:00,64.5,50.3,29.53,WNW,297,5.0,14.0,60,0.00,,,0.00,Wunderground v.1.15,2013-04-30 15:50:00,
2013-04-30 10:55:00,64.6,50.4,29.53,WSW,246,8.0,9.0,60,0.00,,,0.00,Wunderground v.1.15,2013-04-30 15:55:00,
2013-04-30 11:00:00,64.9,50.2,29.54,West,274,6.0,10.0,59,0.00,,,0.00,Wunderground v.1.15,2013-04-30 16:00:00,
2013-04-30 11:05:00,64.6,49.5,29.55,NW,304,4.0,14.0,58,0.00,,,0.00,Wunderground v.1.15,2013-04-30 16:05:00,
2013-04-30 11:10:00,65.0,50.3,29.54,WNW,288,3.0,14.0,59,0.00,,,0.00,Wunderground v.1.15,2013-04-30 16:10:00,
2013-04-30 11:15:00,65.9,49.8,29.56,NW,324,12.0,16.0,56,0.00,,,0.00,Wunderground v.1.15,2013-04-30 16:15:00,
2013-04-30 11:20:00,66.4,50.7,29.57,WNW,301,9.0,16.0,57,0.00,,,0.00,Wunderground v.1.15,2013-04-30 16:20:00,
2013-04-30 11:25:00,66.0,49.8,29.57,WNW,294,8.0,16.0,56,0.00,,,0.00,Wunderground v.1.15,2013-04-30 16:25:00,
2013-04-30 11:30:00,66.5,49.3,29.57,NW,312,8.0,17.0,54,0.00,,,0.00,Wunderground v.1.15,2013-04-30 16:30:00,
2013-04-30 11:35:00,66.1,49.0,29.57,NW,311,12.0,12.0,54,0.00,,,0.00,Wunderground v.1.15,2013-04-30 16:35:00,
2013-04-30 11:41:00,66.2,49.1,29.57,WNW,297,5.0,13.0,54,0.00,,,0.00,Wunderground v.1.15,2013-04-30 16:41:00,
2013-04-30 11:46:00,66.5,48.8,29.57,NW,305,3.0,11.0,53,0.00,,,0.00,Wunderground v.1.15,2013-04-30 16:46:00,
2013-04-30 11:51:00,66.2,48.6,29.57,WNW,298,4.0,15.0,53,0.00,,,0.00,Wunderground v.1.15,2013-04-30 16:51:00,
2013-04-30 11:56:00,65.9,49.3,29.56,NW,306,2.0,11.0,55,0.00,,,0.00,Wunderground v.1.15,2013-04-30 16:56:00,
2013-04-30 12:01:00,66.0,48.4,29.59,WSW,256,7.0,11.0,53,0.00,,,0.00,Wunderground v.1.15,2013-04-30 17:01:00,
2013-04-30 12:06:00,65.3,47.7,29.60,WNW,285,3.0,11.0,53,0.00,,,0.00,Wunderground v.1.15,2013-04-30 17:06:00,
2013-04-30 12:11:00,65.1,48.0,29.60,WNW,291,5.0,11.0,54,0.00,,,0.00,Wunderground v.1.15,2013-04-30 17:11:00,
2013-04-30 12:16:00,64.9,47.9,29.62,West,275,8.0,8.0,54,0.00,,,0.00,Wunderground v.1.15,2013-04-30 17:16:00,
2013-04-30 12:21:00,64.3,47.3,29.61,NW,315,9.0,14.0,54,0.00,,,0.00,Wunderground v.1.15,2013-04-30 17:21:00,
2013-04-30 12:26:00,64.0,47.5,29.61,NW,306,9.0,13.0,55,0.00,,,0.00,Wunderground v.1.15,2013-04-30 17:26:00,
2013-04-30 12:31:00,64.0,47.5,29.61,NW,323,7.0,7.0,55,0.00,,,0.00,Wunderground v.1.15,2013-04-30 17:31:00,
2013-04-30 12:36:00,64.5,48.9,29.64,West,277,8.0,8.0,57,0.00,,,0.00,Wunderground v.1.15,2013-04-30 17:36:00,
2013-04-30 12:41:00,65.1,49.0,29.64,WNW,292,3.0,6.0,56,0.00,,,0.00,Wunderground v.1.15,2013-04-30 17:41:00,
2013-04-30 12:46:00,64.8,48.2,29.61,WSW,251,10.0,11.0,55,0.00,,,0.00,Wunderground v.1.15,2013-04-30 17:46:00,
2013-04-30 12:52:00,64.2,48.6,29.63,West,267,5.0,6.0,57,0.00,,,0.00,Wunderground v.1.15,2013-04-30 17:52:00,
2013-04-30 12:57:00,63.9,47.9,29.62,WSW,240,3.0,11.0,56,0.00,,,0.00,Wunderground v.1.15,2013-04-30 17:57:00,
2013-04-30 13:02:00,64.0,48.9,29.62,WNW,300,6.0,7.0,58,0.00,,,0.00,Wunderground v.1.15,2013-04-30 18:02:00,
2013-04-30 13:07:00,64.4,48.4,29.64,WSW,247,7.0,9.0,56,0.00,,,0.00,Wunderground v.1.15,2013-04-30 18:07:00,
2013-04-30 13:12:00,64.8,48.2,29.64,NNW,330,5.0,7.0,55,0.00,,,0.00,Wunderground v.1.15,2013-04-30 18:12:00,
2013-04-30 13:17:00,64.8,48.7,29.64,WNW,294,7.0,12.0,56,0.00,,,0.00,Wunderground v.1.15,2013-04-30 18:17:00,
2013-04-30 13:22:00,65.1,48.0,29.63,WNW,282,4.0,9.0,54,0.00,,,0.00,Wunderground v.1.15,2013-04-30 18:22:00,
2013-04-30 13:27:00,65.0,47.9,29.63,West,263,7.0,16.0,54,0.00,,,0.00,Wunderground v.1.15,2013-04-30 18:27:00,
2013-04-30 13:32:00,65.0,47.9,29.62,West,274,4.0,6.0,54,0.00,,,0.00,Wunderground v.1.15,2013-04-30 18:32:00,
2013-04-30 13:37:00,65.5,47.4,29.61,NW,308,15.0,17.0,52,0.00,,,0.00,Wunderground v.1.15,2013-04-30 18:37:00,
2013-04-30 13:42:00,65.6,48.5,29.61,WNW,286,5.0,6.0,54,0.00,,,0.00,Wunderground v.1.15,2013-04-30 18:42:00,
2013-04-30 13:48:00,65.5,47.4,29.62,WNW,292,6.0,11.0,52,0.00,,,0.00,Wunderground v.1.15,2013-04-30 18:48:00,
2013-04-30 13:53:00,65.6,48.5,29.63,WSW,258,10.0,10.0,54,0.00,,,0.00,Wunderground v.1.15,2013-04-30 18:53:00,
2013-04-30 13:58:00,66.5,48.8,29.64,WNW,283,6.0,10.0,53,0.00,,,0.00,Wunderground v.1.15,2013-04-30 18:58:00,
2013-04-30 14:03:00,67.5,46.0,29.65,WSW,258,6.0,10.0,46,0.00,,,0.00,Wunderground v.1.15,2013-04-30 19:03:00,
2013-04-30 14:08:00,67.6,44.9,29.66,West,262,6.0,11.0,44,0.00,,,0.00,Wunderground v.1.15,2013-04-30 19:08:00,
2013-04-30 14:13:00,67.4,44.1,29.66,WNW,286,5.0,9.0,43,0.00,,,0.00,Wunderground v.1.15,2013-04-30 19:13:00,
2013-04-30 14:18:00,67.0,44.4,29.65,NW,315,4.0,10.0,44,0.00,,,0.00,Wunderground v.1.15,2013-04-30 19:18:00,
2013-04-30 14:23:00,67.2,45.1,29.64,WNW,301,6.0,8.0,45,0.00,,,0.00,Wunderground v.1.15,2013-04-30 19:23:00,
2013-04-30 14:29:00,67.6,44.9,29.64,WNW,286,7.0,11.0,44,0.00,,,0.00,Wunderground v.1.15,2013-04-30 19:29:00,
2013-04-30 14:34:00,67.6,43.1,29.64,WNW,290,6.0,11.0,41,0.00,,,0.00,Wunderground v.1.15,2013-04-30 19:34:00,
2013-04-30 14:39:00,67.9,42.7,29.64,WNW,292,8.0,11.0,40,0.00,,,0.00,Wunderground v.1.15,2013-04-30 19:39:00,
2013-04-30 14:44:00,67.9,41.3,29.65,WNW,286,10.0,12.0,38,0.00,,,0.00,Wunderground v.1.15,2013-04-30 19:44:00,
2013-04-30 14:49:00,68.2,41.6,29.66,West,260,6.0,13.0,38,0.00,,,0.00,Wunderground v.1.15,2013-04-30 19:49:00,
2013-04-30 14:54:00,68.0,39.3,29.66,WSW,248,6.0,11.0,35,0.00,,,0.00,Wunderground v.1.15,2013-04-30 19:54:00,
2013-04-30 14:59:00,69.0,40.9,29.67,West,259,1.0,16.0,36,0.00,,,0.00,Wunderground v.1.15,2013-04-30 19:59:00,
2013-04-30 15:04:00,70.5,40.8,29.67,West,267,9.0,11.0,34,0.00,,,0.00,Wunderground v.1.15,2013-04-30 20:04:00,
2013-04-30 15:09:00,71.3,40.7,29.68,WSW,257,8.0,11.0,33,0.00,,,0.00,Wunderground v.1.15,2013-04-30 20:09:00,
2013-04-30 15:14:00,71.1,38.9,29.68,WNW,300,6.0,11.0,31,0.00,,,0.00,Wunderground v.1.15,2013-04-30 20:14:00,
2013-04-30 15:20:00,70.5,36.7,29.68,WNW,294,5.0,18.0,29,0.00,,,0.00,Wunderground v.1.15,2013-04-30 20:20:00,
2013-04-30 15:25:00,70.7,37.7,29.68,NW,308,10.0,12.0,30,0.00,,,0.00,Wunderground v.1.15,2013-04-30 20:25:00,
2013-04-30 15:30:00,72.0,40.5,29.68,WNW,294,6.0,15.0,32,0.00,,,0.00,Wunderground v.1.15,2013-04-30 20:30:00,
2013-04-30 15:35:00,71.8,39.5,29.68,WNW,285,5.0,16.0,31,0.00,,,0.00,Wunderground v.1.15,2013-04-30 20:35:00,
2013-04-30 15:40:00,70.6,36.8,29.68,West,278,6.0,16.0,29,0.00,,,0.00,Wunderground v.1.15,2013-04-30 20:40:00,
2013-04-30 15:45:00,70.8,38.7,29.69,WNW,291,5.0,10.0,31,0.00,,,0.00,Wunderground v.1.15,2013-04-30 20:45:00,
2013-04-30 15:51:00,71.2,36.4,29.68,WNW,298,4.0,14.0,28,0.00,,,0.00,Wunderground v.1.15,2013-04-30 20:51:00,
2013-04-30 15:56:00,70.9,39.6,29.68,WNW,296,2.0,15.0,32,0.00,,,0.00,Wunderground v.1.15,2013-04-30 20:56:00,
2013-04-30 16:01:00,70.5,37.6,29.68,WNW,293,6.0,15.0,30,0.00,,,0.00,Wunderground v.1.15,2013-04-30 21:01:00,
2013-04-30 16:06:00,69.3,37.3,29.69,West,271,5.0,13.0,31,0.00,,,0.00,Wunderground v.1.15,2013-04-30 21:06:00,
2013-04-30 16:11:00,68.6,37.5,29.71,West,275,4.0,7.0,32,0.00,,,0.00,Wunderground v.1.15,2013-04-30 21:11:00,
2013-04-30 16:16:00,68.2,36.4,29.70,West,272,4.0,9.0,31,0.00,,,0.00,Wunderground v.1.15,2013-04-30 21:16:00,
2013-04-30 16:21:00,68.0,35.4,29.70,West,265,6.0,9.0,30,0.00,,,0.00,Wunderground v.1.15,2013-04-30 21:21:00,
2013-04-30 16:26:00,68.4,36.6,29.70,NW,304,6.0,9.0,31,0.00,,,0.00,Wunderground v.1.15,2013-04-30 21:26:00,
2013-04-30 16:31:00,68.4,35.7,29.72,WSW,244,6.0,7.0,30,0.00,,,0.00,Wunderground v.1.15,2013-04-30 21:31:00,
2013-04-30 16:37:00,68.0,34.5,29.74,West,259,7.0,11.0,29,0.00,,,0.00,Wunderground v.1.15,2013-04-30 21:37:00,
2013-04-30 16:42:00,67.6,34.2,29.74,West,265,7.0,7.0,29,0.00,,,0.00,Wunderground v.1.15,2013-04-30 21:42:00,
2013-04-30 16:47:00,67.9,36.1,29.74,West,269,9.0,11.0,31,0.00,,,0.00,Wunderground v.1.15,2013-04-30 21:47:00,
2013-04-30 16:52:00,68.6,35.9,29.74,West,267,6.0,9.0,30,0.00,,,0.00,Wunderground v.1.15,2013-04-30 21:52:00,
2013-04-30 16:57:00,69.0,33.6,29.74,West,259,13.0,13.0,27,0.00,,,0.00,Wunderground v.1.15,2013-04-30 21:57:00,
2013-04-30 17:02:00,68.3,33.0,29.75,West,281,5.0,10.0,27,0.00,,,0.00,Wunderground v.1.15,2013-04-30 22:02:00,
2013-04-30 17:07:00,67.9,30.8,29.76,WSW,247,10.0,11.0,25,0.00,,,0.00,Wunderground v.1.15,2013-04-30 22:07:00,
2013-04-30 17:12:00,67.3,31.2,29.77,WSW,254,6.0,8.0,26,0.00,,,0.00,Wunderground v.1.15,2013-04-30 22:12:00,
2013-04-30 17:18:00,67.2,32.1,29.77,West,279,6.0,13.0,27,0.00,,,0.00,Wunderground v.1.15,2013-04-30 22:18:00,
2013-04-30 17:23:00,67.4,32.2,29.77,WNW,282,6.0,13.0,27,0.00,,,0.00,Wunderground v.1.15,2013-04-30 22:23:00,
2013-04-30 17:28:00,68.0,34.5,29.77,WNW,292,6.0,14.0,29,0.00,,,0.00,Wunderground v.1.15,2013-04-30 22:28:00,
2013-04-30 17:33:00,68.3,33.0,29.77,WNW,290,5.0,10.0,27,0.00,,,0.00,Wunderground v.1.15,2013-04-30 22:33:00,
2013-04-30 17:38:00,68.8,33.4,29.78,NW,321,1.0,14.0,27,0.00,,,0.00,Wunderground v.1.15,2013-04-30 22:38:00,
2013-04-30 17:43:00,69.0,31.7,29.78,West,276,7.0,15.0,25,0.00,,,0.00,Wunderground v.1.15,2013-04-30 22:43:00,
2013-04-30 17:48:00,68.3,31.1,29.78,WSW,254,4.0,16.0,25,0.00,,,0.00,Wunderground v.1.15,2013-04-30 22:48:00,
2013-04-30 17:53:00,67.9,32.7,29.78,WNW,300,6.0,11.0,27,0.00,,,0.00,Wunderground v.1.15,2013-04-30 22:53:00,
2013-04-30 17:58:00,67.4,32.2,29.78,West,274,0.0,11.0,27,0.00,,,0.00,Wunderground v.1.15,2013-04-30 22:58:00,
2013-04-30 18:03:00,66.8,32.6,29.78,WNW,288,1.0,5.0,28,0.00,,,0.00,Wunderground v.1.15,2013-04-30 23:03:00,
2013-04-30 18:08:00,66.5,32.4,29.79,WNW,284,0.0,9.0,28,0.00,,,0.00,Wunderground v.1.15,2013-04-30 23:08:00,
2013-04-30 18:13:00,66.3,32.2,29.79,West,276,1.0,7.0,28,0.00,,,0.00,Wunderground v.1.15,2013-04-30 23:13:00,
2013-04-30 18:19:00,66.4,34.0,29.80,WNW,296,7.0,8.0,30,0.00,,,0.00,Wunderground v.1.15,2013-04-30 23:19:00,
2013-04-30 18:24:00,66.1,33.7,29.80,WNW,286,9.0,9.0,30,0.00,,,0.00,Wunderground v.1.15,2013-04-30 23:24:00,
2013-04-30 18:29:00,65.8,35.9,29.80,West,271,6.0,10.0,33,0.00,,,0.00,Wunderground v.1.15,2013-04-30 23:29:00,
2013-04-30 18:34:00,65.5,37.1,29.80,WNW,301,1.0,11.0,35,0.00,,,0.00,Wunderground v.1.15,2013-04-30 23:34:00,
2013-04-30 18:39:00,65.3,37.6,29.81,West,281,2.0,11.0,36,0.00,,,0.00,Wunderground v.1.15,2013-04-30 23:39:00,
2013-04-30 18:44:00,65.2,37.6,29.81,NW,311,0.0,3.0,36,0.00,,,0.00,Wunderground v.1.15,2013-04-30 23:44:00,
2013-04-30 18:49:00,65.3,37.6,29.81,WNW,302,8.0,8.0,36,0.00,,,0.00,Wunderground v.1.15,2013-04-30 23:49:00,
2013-04-30 18:54:00,65.1,37.5,29.82,NW,325,7.0,7.0,36,0.00,,,0.00,Wunderground v.1.15,2013-04-30 23:54:00,
2013-04-30 18:59:00,64.7,37.1,29.82,NW,311,0.0,8.0,36,0.00,,,0.00,Wunderground v.1.15,2013-04-30 23:59:00,
2013-04-30 19:04:00,64.3,37.5,29.83,WNW,298,5.0,8.0,37,0.00,,,0.00,Wunderground v.1.15,2013-05-01 00:04:00,
2013-04-30 19:10:00,64.0,37.2,29.83,NW,316,7.0,8.0,37,0.00,,,0.00,Wunderground v.1.15,2013-05-01 00:10:00,
2013-04-30 19:15:00,63.6,37.5,29.83,NW,306,6.0,8.0,38,0.00,,,0.00,Wunderground v.1.15,2013-05-01 00:15:00,
2013-04-30 19:20:00,63.3,37.2,29.83,NW,307,0.0,8.0,38,0.00,,,0.00,Wunderground v.1.15,2013-05-01 00:20:00,
2013-04-30 19:25:00,63.1,38.4,29.83,WNW,298,0.0,3.0,40,0.00,,,0.00,Wunderground v.1.15,2013-05-01 00:25:00,
2013-04-30 19:30:00,63.0,38.3,29.83,NW,313,0.0,5.0,40,0.00,,,0.00,Wunderground v.1.15,2013-05-01 00:30:00,
2013-04-30 19:35:00,62.7,38.0,29.83,NW,311,5.0,6.0,40,0.00,,,0.00,Wunderground v.1.15,2013-05-01 00:35:00,
2013-04-30 19:40:00,62.3,38.3,29.83,WNW,302,1.0,7.0,41,0.00,,,0.00,Wunderground v.1.15,2013-05-01 00:40:00,
2013-04-30 19:45:00,61.8,37.8,29.83,NW,314,2.0,12.0,41,0.00,,,0.00,Wunderground v.1.15,2013-05-01 00:45:00,
2013-04-30 19:50:00,61.4,38.7,29.83,NW,305,7.0,12.0,43,0.00,,,0.00,Wunderground v.1.15,2013-05-01 00:50:00,
2013-04-30 19:56:00,61.0,38.3,29.83,WNW,290,1.0,6.0,43,0.00,,,0.00,Wunderground v.1.15,2013-05-01 00:56:00,
2013-04-30 20:01:00,60.6,38.6,29.83,NW,313,2.0,6.0,44,0.00,,,0.00,Wunderground v.1.15,2013-05-01 01:01:00,
2013-04-30 20:06:00,60.3,38.3,29.83,NW,310,0.0,5.0,44,0.00,,,0.00,Wunderground v.1.15,2013-05-01 01:06:00,
2013-04-30 20:11:00,60.1,38.7,29.83,NW,310,0.0,5.0,45,0.00,,,0.00,Wunderground v.1.15,2013-05-01 01:11:00,
2013-04-30 20:16:00,60.0,39.1,29.83,WNW,302,0.0,5.0,46,0.00,,,0.00,Wunderground v.1.15,2013-05-01 01:16:00,
2013-04-30 20:22:00,59.7,38.9,29.83,NW,304,0.0,1.0,46,0.00,,,0.00,Wunderground v.1.15,2013-05-01 01:22:00,
2013-04-30 20:27:00,59.4,39.1,29.83,NW,313,0.0,7.0,47,0.00,,,0.00,Wunderground v.1.15,2013-05-01 01:27:00,
2013-04-30 20:32:00,59.2,39.5,29.84,NW,313,0.0,1.0,48,0.00,,,0.00,Wunderground v.1.15,2013-05-01 01:32:00,
2013-04-30 20:37:00,59.0,39.9,29.84,NW,313,0.0,1.0,49,0.00,,,0.00,Wunderground v.1.15,2013-05-01 01:37:00,
2013-04-30 20:42:00,58.7,39.6,29.85,NW,308,3.0,3.0,49,0.00,,,0.00,Wunderground v.1.15,2013-05-01 01:42:00,
2013-04-30 20:47:00,58.3,39.7,29.85,NW,310,0.0,5.0,50,0.00,,,0.00,Wunderground v.1.15,2013-05-01 01:47:00,
2013-04-30 20:52:00,57.9,39.4,29.85,NW,326,0.0,1.0,50,0.00,,,0.00,Wunderground v.1.15,2013-05-01 01:52:00,
2013-04-30 20:58:00,57.7,39.7,29.85,NW,326,0.0,1.0,51,0.00,,,0.00,Wunderground v.1.15,2013-05-01 01:58:00,
2013-04-30 21:03:00,57.4,39.9,29.85,NW,324,0.0,0.0,52,0.00,,,0.00,Wunderground v.1.15,2013-05-01 02:03:00,
2013-04-30 21:08:00,57.2,39.7,29.85,NW,325,0.0,3.0,52,0.00,,,0.00,Wunderground v.1.15,2013-05-01 02:08:00,
2013-04-30 21:13:00,57.0,39.5,29.85,NW,325,0.0,0.0,52,0.00,,,0.00,Wunderground v.1.15,2013-05-01 02:13:00,
2013-04-30 21:18:00,56.8,39.8,29.86,NW,325,0.0,2.0,53,0.00,,,0.00,Wunderground v.1.15,2013-05-01 02:18:00,
2013-04-30 21:23:00,56.4,39.5,29.86,NW,325,0.0,0.0,53,0.00,,,0.00,Wunderground v.1.15,2013-05-01 02:23:00,
2013-04-30 21:28:00,56.1,39.7,29.86,NW,325,0.0,3.0,54,0.00,,,0.00,Wunderground v.1.15,2013-05-01 02:28:00,
2013-04-30 21:33:00,55.8,39.4,29.86,NW,325,0.0,0.0,54,0.00,,,0.00,Wunderground v.1.15,2013-05-01 02:33:00,
2013-04-30 21:38:00,55.6,39.7,29.85,North,360,0.0,4.0,55,0.00,,,0.00,Wunderground v.1.15,2013-05-01 02:38:00,
2013-04-30 21:43:00,55.5,40.0,29.86,North,360,0.0,0.0,56,0.00,,,0.00,Wunderground v.1.15,2013-05-01 02:43:00,
2013-04-30 21:49:00,55.3,39.9,29.86,NW,318,0.0,5.0,56,0.00,,,0.00,Wunderground v.1.15,2013-05-01 02:49:00,
2013-04-30 21:54:00,55.2,40.2,29.87,NW,318,0.0,3.0,57,0.00,,,0.00,Wunderground v.1.15,2013-05-01 02:54:00,
2013-04-30 21:59:00,55.0,40.5,29.88,NW,317,0.0,3.0,58,0.00,,,0.00,Wunderground v.1.15,2013-05-01 02:59:00,
2013-04-30 22:04:00,54.8,40.3,29.89,WNW,294,5.0,5.0,58,0.00,,,0.00,Wunderground v.1.15,2013-05-01 03:04:00,
2013-04-30 22:09:00,54.6,40.6,29.89,NW,318,0.0,5.0,59,0.00,,,0.00,Wunderground v.1.15,2013-05-01 03:09:00,
2013-04-30 22:14:00,54.6,40.6,29.89,NW,315,3.0,5.0,59,0.00,,,0.00,Wunderground v.1.15,2013-05-01 03:14:00,
2013-04-30 22:19:00,54.8,40.7,29.89,NW,306,0.0,6.0,59,0.00,,,0.00,Wunderground v.1.15,2013-05-01 03:19:00,
2013-04-30 22:25:00,55.1,40.6,29.90,NW,319,0.0,10.0,58,0.00,,,0.00,Wunderground v.1.15,2013-05-01 03:25:00,
2013-04-30 22:30:00,55.6,40.6,29.90,West,275,1.0,10.0,57,0.00,,,0.00,Wunderground v.1.15,2013-05-01 03:30:00,
2013-04-30 22:35:00,55.9,40.4,29.90,NW,306,2.0,5.0,56,0.00,,,0.00,Wunderground v.1.15,2013-05-01 03:35:00,
2013-04-30 22:40:00,56.1,40.6,29.91,WNW,303,2.0,6.0,56,0.00,,,0.00,Wunderground v.1.15,2013-05-01 03:40:00,
2013-04-30 22:45:00,56.1,40.1,29.91,WNW,285,1.0,4.0,55,0.00,,,0.00,Wunderground v.1.15,2013-05-01 03:45:00,
2013-04-30 22:50:00,56.1,40.1,29.91,NW,317,8.0,9.0,55,0.00,,,0.00,Wunderground v.1.15,2013-05-01 03:50:00,
2013-04-30 22:55:00,56.2,39.8,29.91,WNW,301,9.0,14.0,54,0.00,,,0.00,Wunderground v.1.15,2013-05-01 03:55:00,
2013-04-30 23:00:00,56.1,39.7,29.91,NW,315,6.0,14.0,54,0.00,,,0.00,Wunderground v.1.15,2013-05-01 04:00:00,
2013-04-30 23:01:00,56.1,39.7,29.91,WNW,302,5.0,14.0,54,0.00,,,0.00,Wunderground v.1.15,2013-05-01 04:01:00,
2013-04-30 23:02:00,56.1,39.7,29.91,WNW,292,13.0,13.0,54,0.00,,,0.00,Wunderground v.1.15,2013-05-01 04:02:00,
2013-04-30 23:03:00,56.1,39.7,29.91,NW,312,7.0,13.0,54,0.00,,,0.00,Wunderground v.1.15,2013-05-01 04:03:00,
2013-04-30 23:08:00,56.0,39.1,29.91,WNW,302,6.0,13.0,53,0.00,,,0.00,Wunderground v.1.15,2013-05-01 04:08:00,
2013-04-30 23:13:00,56.0,39.1,29.92,WNW,299,4.0,11.0,53,0.00,,,0.00,Wunderground v.1.15,2013-05-01 04:13:00,
2013-04-30 23:18:00,55.9,39.0,29.92,NW,305,1.0,11.0,53,0.00,,,0.00,Wunderground v.1.15,2013-05-01 04:18:00,
2013-04-30 23:23:00,55.7,39.3,29.92,WNW,284,6.0,11.0,54,0.00,,,0.00,Wunderground v.1.15,2013-05-01 04:23:00,
2013-04-30 23:28:00,55.7,39.3,29.92,NW,314,7.0,11.0,54,0.00,,,0.00,Wunderground v.1.15,2013-05-01 04:28:00,
2013-04-30 23:33:00,55.5,39.1,29.92,WNW,296,5.0,8.0,54,0.00,,,0.00,Wunderground v.1.15,2013-05-01 04:33:00,
2013-04-30 23:38:00,55.4,39.0,29.93,NW,314,5.0,11.0,54,0.00,,,0.00,Wunderground v.1.15,2013-05-01 04:38:00,
2013-04-30 23:43:00,55.3,38.4,29.93,NW,311,8.0,12.0,53,0.00,,,0.00,Wunderground v.1.15,2013-05-01 04:43:00,
2013-04-30 23:48:00,55.2,38.4,29.93,West,276,8.0,12.0,53,0.00,,,0.00,Wunderground v.1.15,2013-05-01 04:48:00,
2013-04-30 23:53:00,55.1,38.3,29.94,WNW,288,11.0,11.0,53,0.00,,,0.00,Wunderground v.1.15,2013-05-01 04:53:00,
2013-04-30 23:58:00,55.0,38.2,29.94,WNW,301,4.0,13.0,53,0.00,,,0.00,Wunderground v.1.15,2013-05-01 04:58:00,